createdAt,value
2023-01-10T00:01:44.383Z,8.39
2023-01-10T00:04:37.220Z,8.31
2023-01-10T00:07:15.067Z,8.23
2023-01-10T00:09:50.636Z,8.25
2023-01-10T00:12:40.055Z,8.03
2023-01-10T00:15:28.500Z,8.11
2023-01-10T00:18:00.257Z,8.27
2023-01-10T00:20:35.145Z,8.20
2023-01-10T00:23:12.219Z,8.17
2023-01-10T00:25:58.811Z,8.20
2023-01-10T00:28:42.920Z,8.06
2023-01-10T00:31:22.095Z,8.01
2023-01-10T00:34:03.136Z,7.98
2023-01-10T00:36:58.429Z,8.02
2023-01-10T00:39:37.288Z,8.02
2023-01-10T00:42:38.593Z,7.85
2023-01-10T00:45:27.253Z,7.97
2023-01-10T00:47:58.877Z,8.10
2023-01-10T00:50:30.789Z,8.18
2023-01-10T00:53:08.703Z,8.23
2023-01-10T00:55:46.222Z,8.22
2023-01-10T00:59:07.321Z,8.19
2023-01-10T01:01:54.697Z,8.19
2023-01-10T01:04:47.571Z,8.03
2023-01-10T01:07:20.859Z,8.13
2023-01-10T01:10:15.176Z,8.19
2023-01-10T01:12:55.305Z,8.14
2023-01-10T01:18:44.275Z,8.26
2023-01-10T01:21:24.724Z,8.24
2023-01-10T01:23:58.026Z,8.18
2023-01-10T01:27:03.324Z,8.19
2023-01-10T01:29:52.128Z,8.11
2023-01-10T01:32:46.446Z,8.25
2023-01-10T01:35:21.431Z,8.19
2023-01-10T01:38:09.614Z,8.22
2023-01-10T01:40:46.868Z,8.17
2023-01-10T01:43:27.264Z,7.94
2023-01-10T01:46:03.393Z,7.89
2023-01-10T01:48:40.163Z,7.96
2023-01-10T01:51:17.735Z,8.00
2023-01-10T01:53:56.312Z,7.95
2023-01-10T01:56:32.227Z,7.84
2023-01-10T01:59:08.834Z,7.85
2023-01-10T02:01:43.920Z,7.82
2023-01-10T02:04:21.176Z,7.71
2023-01-10T02:06:57.404Z,7.53
2023-01-10T02:09:34.142Z,7.43
2023-01-10T02:12:06.181Z,7.43
2023-01-10T02:14:42.250Z,7.69
2023-01-10T02:17:14.650Z,7.80
2023-01-10T02:19:53.140Z,7.80
2023-01-10T02:22:52.230Z,7.70
2023-01-10T02:25:53.769Z,7.56
2023-01-10T02:28:49.493Z,7.58
2023-01-10T02:31:38.714Z,7.62
2023-01-10T02:34:18.500Z,7.54
2023-01-10T02:37:00.183Z,7.39
2023-01-10T02:39:42.033Z,7.40
2023-01-10T02:42:28.921Z,7.53
2023-01-10T02:45:11.219Z,7.56
2023-01-10T02:47:46.980Z,7.71
2023-01-10T02:50:53.841Z,7.61
2023-01-10T02:53:31.952Z,7.43
2023-01-10T02:56:39.395Z,7.39
2023-01-10T02:59:44.049Z,7.36
2023-01-10T03:02:25.233Z,7.33
2023-01-10T03:05:10.281Z,7.36
2023-01-10T03:07:51.253Z,7.35
2023-01-10T03:10:32.078Z,7.29
2023-01-10T03:13:11.595Z,7.28
2023-01-10T03:15:47.528Z,7.18
2023-01-10T03:18:27.069Z,7.22
2023-01-10T03:21:01.202Z,7.23
2023-01-10T03:23:36.871Z,7.29
2023-01-10T03:26:12.023Z,7.41
2023-01-10T03:28:51.554Z,7.45
2023-01-10T03:31:29.308Z,7.14
2023-01-10T03:34:04.572Z,7.09
2023-01-10T03:36:44.171Z,7.03
2023-01-10T03:39:22.846Z,6.90
2023-01-10T03:42:04.299Z,6.97
2023-01-10T03:44:47.838Z,7.15
2023-01-10T03:47:25.753Z,7.09
2023-01-10T03:50:08.737Z,7.01
2023-01-10T03:52:42.461Z,6.99
2023-01-10T03:55:22.898Z,7.06
2023-01-10T03:57:54.818Z,7.02
2023-01-10T04:00:46.871Z,6.92
2023-01-10T04:03:24.706Z,6.90
2023-01-10T04:05:56.428Z,6.77
2023-01-10T04:08:28.336Z,6.76
2023-01-10T04:10:59.786Z,6.72
2023-01-10T04:13:31.403Z,6.66
2023-01-10T04:16:04.278Z,6.66
2023-01-10T04:18:35.719Z,6.70
2023-01-10T04:21:08.877Z,6.74
2023-01-10T04:23:40.649Z,6.75
2023-01-10T04:26:12.282Z,6.87
2023-01-10T04:28:43.819Z,6.90
2023-01-10T04:31:35.677Z,6.86
2023-01-10T04:34:40.804Z,6.81
2023-01-10T04:37:12.356Z,6.84
2023-01-10T04:39:43.932Z,6.87
2023-01-10T04:42:15.444Z,6.91
2023-01-10T04:44:47.027Z,6.92
2023-01-10T04:47:18.572Z,6.83
2023-01-10T04:49:50.115Z,6.76
2023-01-10T04:52:21.661Z,6.78
2023-01-10T04:54:53.315Z,6.68
2023-01-10T04:57:24.791Z,6.67
2023-01-10T04:59:56.531Z,6.65
2023-01-10T05:02:28.613Z,6.64
2023-01-10T05:05:01.248Z,6.65
2023-01-10T05:07:32.909Z,6.67
2023-01-10T05:10:04.347Z,6.68
2023-01-10T05:12:36.152Z,6.57
2023-01-10T05:15:09.474Z,6.41
2023-01-10T05:17:41.284Z,6.47
2023-01-10T05:20:15.015Z,6.61
2023-01-10T05:22:46.644Z,6.66
2023-01-10T05:25:18.395Z,6.61
2023-01-10T05:27:50.104Z,6.40
2023-01-10T05:30:22.590Z,6.26
2023-01-10T05:32:54.436Z,6.26
2023-01-10T05:35:26.070Z,6.36
2023-01-10T05:38:00.268Z,6.29
2023-01-10T05:40:32.153Z,6.29
2023-01-10T05:43:03.853Z,6.39
2023-01-10T05:45:35.392Z,6.56
2023-01-10T05:48:07.497Z,6.53
2023-01-10T05:50:38.970Z,6.41
2023-01-10T05:53:10.785Z,6.45
2023-01-10T05:55:42.445Z,6.47
2023-01-10T05:58:16.414Z,6.47
2023-01-10T06:00:48.049Z,6.46
2023-01-10T06:03:19.806Z,6.46
2023-01-10T06:05:53.115Z,6.36
2023-01-10T06:08:25.497Z,6.34
2023-01-10T06:10:57.249Z,6.37
2023-01-10T06:13:28.794Z,6.34
2023-01-10T06:16:00.331Z,6.25
2023-01-10T06:18:31.995Z,6.34
2023-01-10T06:21:03.538Z,6.32
2023-01-10T06:23:34.897Z,6.27
2023-01-10T06:26:06.604Z,6.24
2023-01-10T06:28:38.073Z,6.29
2023-01-10T06:31:09.691Z,6.27
2023-01-10T06:33:41.819Z,6.29
2023-01-10T06:36:14.097Z,6.40
2023-01-10T06:38:46.012Z,6.28
2023-01-10T06:41:17.505Z,6.29
2023-01-10T06:43:51.408Z,6.26
2023-01-10T06:46:24.265Z,6.18
2023-01-10T06:48:55.898Z,6.21
2023-01-10T06:51:27.413Z,6.27
2023-01-10T06:53:58.967Z,6.36
2023-01-10T06:56:31.020Z,6.31
2023-01-10T06:59:02.541Z,6.31
2023-01-10T07:01:34.192Z,6.34
2023-01-10T07:04:06.320Z,6.42
2023-01-10T07:06:43.339Z,6.34
2023-01-10T07:09:15.177Z,6.09
2023-01-10T07:11:46.745Z,6.14
2023-01-10T07:14:18.306Z,6.13
2023-01-10T07:16:49.845Z,5.99
2023-01-10T07:19:21.531Z,5.99
2023-01-10T07:21:53.144Z,6.06
2023-01-10T07:24:27.523Z,6.05
2023-01-10T07:26:59.962Z,6.02
2023-01-10T07:29:34.074Z,6.04
2023-01-10T07:32:05.640Z,6.05
2023-01-10T07:34:37.536Z,6.03
2023-01-10T07:37:09.051Z,5.94
2023-01-10T07:39:42.491Z,5.90
2023-01-10T07:42:14.049Z,5.84
2023-01-10T07:44:45.479Z,5.83
2023-01-10T07:47:17.066Z,5.77
2023-01-10T07:49:53.000Z,5.88
2023-01-10T07:52:24.798Z,5.83
2023-01-10T07:54:56.363Z,5.89
2023-01-10T07:57:28.664Z,5.98
2023-01-10T08:00:00.294Z,6.06
2023-01-10T08:02:32.156Z,6.12
2023-01-10T08:05:06.128Z,5.98
2023-01-10T08:07:37.799Z,5.96
2023-01-10T08:10:11.123Z,5.77
2023-01-10T08:12:42.701Z,5.66
2023-01-10T08:15:15.196Z,5.63
2023-01-10T08:17:49.217Z,5.66
2023-01-10T08:20:21.401Z,5.65
2023-01-10T08:22:53.266Z,5.69
2023-01-10T08:25:25.370Z,5.71
2023-01-10T08:27:56.854Z,5.67
2023-01-10T08:30:29.693Z,5.71
2023-01-10T08:33:07.734Z,5.71
2023-01-10T08:35:42.956Z,5.74
2023-01-10T08:38:14.857Z,5.80
2023-01-10T08:40:49.398Z,5.87
2023-01-10T08:43:25.573Z,5.98
2023-01-10T08:45:59.852Z,6.06
2023-01-10T08:48:33.716Z,6.16
2023-01-10T08:51:11.497Z,6.22
2023-01-10T08:53:46.891Z,6.11
2023-01-10T08:56:19.888Z,6.05
2023-01-10T08:58:52.858Z,6.08
2023-01-10T09:01:26.179Z,6.06
2023-01-10T09:03:58.075Z,6.08
2023-01-10T09:06:31.976Z,6.07
2023-01-10T09:09:07.057Z,5.99
2023-01-10T09:11:40.569Z,5.87
2023-01-10T09:14:13.328Z,5.80
2023-01-10T09:16:45.181Z,6.01
2023-01-10T09:19:17.147Z,6.10
2023-01-10T09:21:49.548Z,6.07
2023-01-10T09:24:21.578Z,6.01
2023-01-10T09:26:53.041Z,6.02
2023-01-10T09:29:24.541Z,5.99
2023-01-10T09:31:56.420Z,6.05
2023-01-10T09:34:29.674Z,6.07
2023-01-10T09:37:01.054Z,6.08
2023-01-10T09:39:32.739Z,6.15
2023-01-10T09:42:21.804Z,6.17
2023-01-10T09:45:06.760Z,6.13
2023-01-10T09:47:45.505Z,6.25
2023-01-10T09:50:25.223Z,6.32
2023-01-10T09:53:00.658Z,6.37
2023-01-10T09:55:35.477Z,6.33
2023-01-10T09:58:07.054Z,6.40
2023-01-10T10:00:45.661Z,6.39
2023-01-10T10:03:29.438Z,6.40
2023-01-10T10:06:11.735Z,6.44
2023-01-10T10:08:45.208Z,6.50
2023-01-10T10:11:43.493Z,6.50
2023-01-10T10:14:27.247Z,6.52
2023-01-10T10:17:13.459Z,6.55
2023-01-10T10:20:03.468Z,6.70
2023-01-10T10:22:48.133Z,6.78
2023-01-10T10:25:38.085Z,6.69
2023-01-10T10:28:31.842Z,6.63
2023-01-10T10:31:14.094Z,6.65
2023-01-10T10:34:03.008Z,6.72
2023-01-10T10:36:45.057Z,6.85
2023-01-10T10:39:21.133Z,6.76
2023-01-10T10:41:56.987Z,6.70
2023-01-10T10:44:42.429Z,6.75
2023-01-10T10:47:18.617Z,6.80
2023-01-10T10:49:56.452Z,6.87
2023-01-10T10:52:32.645Z,6.98
2023-01-10T10:55:05.850Z,7.14
2023-01-10T10:57:51.618Z,7.18
2023-01-10T11:00:28.411Z,7.18
2023-01-10T11:03:05.435Z,7.13
2023-01-10T11:05:42.551Z,7.07
2023-01-10T11:08:17.370Z,7.00
2023-01-10T11:10:53.857Z,6.99
2023-01-10T11:13:42.141Z,6.98
2023-01-10T11:16:27.950Z,6.87
2023-01-10T11:19:21.244Z,6.84
2023-01-10T11:21:57.668Z,6.77
2023-01-10T11:24:34.276Z,6.77
2023-01-10T11:27:22.388Z,6.90
2023-01-10T11:29:57.816Z,6.76
2023-01-10T11:32:36.447Z,6.90
2023-01-10T11:35:19.171Z,6.88
2023-01-10T11:38:02.426Z,6.93
2023-01-10T11:40:35.597Z,7.08
2023-01-10T11:43:30.436Z,7.22
2023-01-10T11:46:04.844Z,7.18
2023-01-10T11:51:47.212Z,7.11
2023-01-10T11:54:22.747Z,7.13
2023-01-10T11:57:00.467Z,7.07
2023-01-10T11:59:33.181Z,7.05
2023-01-10T12:02:13.485Z,6.95
2023-01-10T12:04:47.842Z,6.87
2023-01-10T12:07:19.499Z,6.87
2023-01-10T12:09:58.521Z,6.80
2023-01-10T12:12:32.730Z,6.66
2023-01-10T12:15:25.468Z,6.67
2023-01-10T12:17:59.551Z,6.64
2023-01-10T12:20:33.347Z,6.72
2023-01-10T12:23:08.449Z,6.69
2023-01-10T12:25:42.681Z,6.57
2023-01-10T12:28:19.460Z,6.62
2023-01-10T12:30:53.248Z,6.62
2023-01-10T12:33:27.774Z,6.60
2023-01-10T12:36:07.995Z,6.61
2023-01-10T12:38:59.273Z,6.65
2023-01-10T12:41:53.373Z,6.59
2023-01-10T12:44:30.244Z,6.54
2023-01-10T12:47:09.155Z,6.61
2023-01-10T12:49:50.708Z,6.48
2023-01-10T12:52:31.420Z,6.51
2023-01-10T12:55:04.716Z,6.58
2023-01-10T12:57:40.739Z,6.61
2023-01-10T13:00:22.319Z,6.63
2023-01-10T13:02:57.686Z,6.65
2023-01-10T13:05:32.488Z,6.69
2023-01-10T13:08:05.662Z,6.68
2023-01-10T13:10:40.099Z,6.62
2023-01-10T13:13:22.143Z,6.75
2023-01-10T13:15:59.026Z,6.86
2023-01-10T13:18:32.702Z,6.73
2023-01-10T13:21:13.609Z,6.84
2023-01-10T13:23:51.639Z,6.94
2023-01-10T13:26:23.104Z,6.95
2023-01-10T13:29:00.699Z,6.95
2023-01-10T13:31:35.249Z,6.84
2023-01-10T13:34:11.581Z,6.83
2023-01-10T13:36:47.403Z,6.83
2023-01-10T13:39:29.607Z,6.77
2023-01-10T13:42:50.545Z,6.97
2023-01-10T13:45:27.238Z,6.93
2023-01-10T13:48:04.669Z,6.87
2023-01-10T13:51:18.157Z,6.96
2023-01-10T13:53:59.951Z,6.88
2023-01-10T13:56:47.967Z,6.83
2023-01-10T14:00:18.343Z,6.92
2023-01-10T14:02:50.709Z,6.97
2023-01-10T14:05:22.804Z,7.04
2023-01-10T14:07:56.013Z,7.18
2023-01-10T14:10:29.508Z,7.14
2023-01-10T14:13:09.983Z,7.06
2023-01-10T14:15:44.679Z,7.03
2023-01-10T14:18:21.911Z,7.00
2023-01-10T14:21:02.977Z,7.07
2023-01-10T14:23:39.347Z,7.06
2023-01-10T14:26:18.763Z,7.00
2023-01-10T14:28:51.722Z,6.95
2023-01-10T14:31:25.607Z,6.89
2023-01-10T14:34:00.203Z,6.97
2023-01-10T14:36:34.855Z,7.03
2023-01-10T14:39:09.218Z,6.86
2023-01-10T14:41:44.877Z,6.92
2023-01-10T14:44:22.813Z,7.01
2023-01-10T14:46:55.945Z,6.80
2023-01-10T14:49:30.397Z,6.76
2023-01-10T14:52:15.764Z,6.82
2023-01-10T14:54:48.209Z,6.90
2023-01-10T14:57:24.654Z,6.82
2023-01-10T15:00:06.618Z,6.78
2023-01-10T15:02:39.582Z,6.83
2023-01-10T15:05:19.020Z,6.82
2023-01-10T15:07:50.695Z,6.96
2023-01-10T15:10:29.096Z,6.92
2023-01-10T15:13:07.072Z,6.79
2023-01-10T15:15:41.264Z,6.70
2023-01-10T15:18:28.834Z,6.72
2023-01-10T15:21:01.879Z,6.86
2023-01-10T15:23:39.290Z,6.82
2023-01-10T15:26:15.300Z,6.86
2023-01-10T15:28:49.627Z,6.76
2023-01-10T15:31:21.409Z,6.69
2023-01-10T15:33:56.958Z,6.79
2023-01-10T15:36:30.916Z,6.80
2023-01-10T15:39:02.828Z,6.68
2023-01-10T15:41:38.786Z,6.69
2023-01-10T15:44:38.174Z,6.66
2023-01-10T15:47:23.836Z,6.68
2023-01-10T15:49:59.215Z,6.63
2023-01-10T15:52:31.015Z,6.63
2023-01-10T15:55:02.856Z,6.74
2023-01-10T15:57:36.408Z,6.87
2023-01-10T16:00:15.443Z,6.76
2023-01-10T16:02:47.635Z,6.76
2023-01-10T16:05:22.253Z,6.62
2023-01-10T16:07:54.076Z,6.58
2023-01-10T16:10:28.514Z,6.51
2023-01-10T16:13:31.857Z,6.56
2023-01-10T16:16:12.261Z,6.53
2023-01-10T16:18:44.211Z,6.66
2023-01-10T16:21:16.520Z,6.59
2023-01-10T16:23:48.113Z,6.51
2023-01-10T16:26:19.649Z,6.62
2023-01-10T16:28:51.491Z,6.76
2023-01-10T16:31:23.030Z,6.73
2023-01-10T16:33:54.986Z,6.64
2023-01-10T16:36:26.747Z,6.61
2023-01-10T16:38:58.650Z,6.53
2023-01-10T16:41:48.347Z,6.41
2023-01-10T16:44:20.670Z,6.37
2023-01-10T16:46:53.279Z,6.35
2023-01-10T16:49:26.469Z,6.58
2023-01-10T16:51:58.250Z,6.65
2023-01-10T16:54:29.938Z,6.70
2023-01-10T16:57:01.363Z,6.61
2023-01-10T16:59:32.847Z,6.56
2023-01-10T17:02:04.919Z,6.48
2023-01-10T17:04:37.695Z,6.49
2023-01-10T17:07:09.593Z,6.47
2023-01-10T17:09:41.465Z,6.53
2023-01-10T17:12:20.148Z,6.62
2023-01-10T17:14:51.742Z,6.74
2023-01-10T17:17:23.428Z,6.73
2023-01-10T17:19:54.945Z,6.78
2023-01-10T17:22:26.445Z,6.80
2023-01-10T17:24:57.901Z,6.79
2023-01-10T17:27:29.561Z,6.77
2023-01-10T17:30:02.608Z,6.79
2023-01-10T17:32:35.009Z,6.92
2023-01-10T17:35:07.225Z,7.00
2023-01-10T17:37:38.744Z,7.03
2023-01-10T17:40:13.036Z,6.97
2023-01-10T17:42:45.437Z,7.04
2023-01-10T17:45:16.985Z,7.09
2023-01-10T17:47:48.956Z,6.98
2023-01-10T17:50:21.042Z,7.05
2023-01-10T17:52:53.176Z,7.02
2023-01-10T17:55:26.780Z,6.81
2023-01-10T17:58:00.621Z,6.70
2023-01-10T18:00:32.975Z,6.63
2023-01-10T18:03:04.426Z,6.85
2023-01-10T18:05:36.729Z,6.90
2023-01-10T18:08:10.271Z,6.89
2023-01-10T18:10:41.929Z,6.96
2023-01-10T18:13:15.907Z,6.94
2023-01-10T18:16:05.551Z,6.95
2023-01-10T18:18:37.092Z,6.84
2023-01-10T18:21:16.806Z,6.84
2023-01-10T18:23:50.473Z,6.91
2023-01-10T18:26:22.948Z,6.83
2023-01-10T18:28:54.744Z,6.79
2023-01-10T18:31:26.651Z,6.71
2023-01-10T18:33:59.125Z,6.69
2023-01-10T18:36:30.601Z,6.77
2023-01-10T18:39:04.034Z,6.79
2023-01-10T18:41:35.727Z,6.72
2023-01-10T18:44:08.225Z,6.84
2023-01-10T18:46:41.145Z,6.80
2023-01-10T18:49:13.607Z,6.62
2023-01-10T18:51:45.212Z,6.66
2023-01-10T18:54:18.951Z,6.78
2023-01-10T18:56:53.274Z,6.87
2023-01-10T18:59:25.010Z,6.90
2023-01-10T19:01:57.022Z,6.95
2023-01-10T19:04:29.903Z,7.03
2023-01-10T19:07:07.996Z,7.02
2023-01-10T19:09:45.264Z,7.11
2023-01-10T19:12:19.075Z,7.24
2023-01-10T19:15:03.590Z,7.26
2023-01-10T19:17:36.987Z,7.22
2023-01-10T19:20:11.560Z,7.22
2023-01-10T19:22:47.477Z,7.05
2023-01-10T19:25:21.376Z,7.01
2023-01-10T19:27:53.211Z,7.12
2023-01-10T19:30:31.556Z,7.09
2023-01-10T19:33:06.716Z,6.93
2023-01-10T19:35:42.038Z,6.95
2023-01-10T19:38:35.843Z,7.00
2023-01-10T19:41:23.221Z,7.03
2023-01-10T19:44:17.055Z,7.14
2023-01-10T19:47:05.606Z,7.26
2023-01-10T19:50:00.457Z,7.28
2023-01-10T19:52:39.479Z,7.25
2023-01-10T19:55:12.572Z,7.31
2023-01-10T19:57:44.720Z,7.15
2023-01-10T20:00:18.024Z,7.02
2023-01-10T20:02:50.099Z,7.05
2023-01-10T20:05:22.933Z,7.04
2023-01-10T20:07:57.460Z,7.10
2023-01-10T20:10:30.372Z,7.12
2023-01-10T20:13:02.553Z,7.11
2023-01-10T20:15:35.450Z,7.19
2023-01-10T20:18:10.030Z,7.13
2023-01-10T20:20:44.748Z,6.98
2023-01-10T20:23:22.034Z,6.93
2023-01-10T20:26:13.586Z,7.05
2023-01-10T20:28:48.250Z,7.11
2023-01-10T20:31:25.230Z,7.02
2023-01-10T20:33:57.802Z,6.92
2023-01-10T20:36:30.906Z,6.96
2023-01-10T20:39:06.620Z,7.07
2023-01-10T20:41:38.794Z,7.08
2023-01-10T20:44:10.687Z,7.15
2023-01-10T20:46:42.295Z,7.24
2023-01-10T20:49:16.040Z,7.25
2023-01-10T20:51:49.367Z,7.31
2023-01-10T20:54:22.343Z,7.29
2023-01-10T20:56:54.923Z,7.15
2023-01-10T20:59:29.719Z,7.09
2023-01-10T21:02:00.978Z,7.10
2023-01-10T21:04:33.286Z,7.15
2023-01-10T21:07:07.874Z,7.31
2023-01-10T21:09:41.572Z,7.40
2023-01-10T21:12:27.701Z,7.33
2023-01-10T21:15:02.898Z,7.28
2023-01-10T21:17:34.665Z,7.20
2023-01-10T21:20:14.706Z,7.23
2023-01-10T21:22:47.086Z,7.16
2023-01-10T21:25:18.926Z,7.21
2023-01-10T21:27:50.731Z,7.13
2023-01-10T21:30:23.223Z,7.19
2023-01-10T21:32:56.461Z,7.18
2023-01-10T21:35:28.051Z,7.13
2023-01-10T21:38:02.561Z,7.07
2023-01-10T21:40:35.651Z,6.98
2023-01-10T21:43:07.799Z,6.84
2023-01-10T21:45:39.794Z,6.89
2023-01-10T21:48:11.299Z,7.09
2023-01-10T21:50:45.043Z,7.19
2023-01-10T21:53:16.975Z,7.23
2023-01-10T21:55:58.563Z,7.31
2023-01-10T21:58:30.474Z,7.33
2023-01-10T22:01:03.553Z,7.28
2023-01-10T22:03:36.546Z,7.25
2023-01-10T22:06:11.209Z,7.26
2023-01-10T22:09:05.907Z,7.33
2023-01-10T22:12:13.213Z,7.28
2023-01-10T22:14:56.747Z,7.28
2023-01-10T22:17:51.314Z,7.27
2023-01-10T22:20:46.662Z,7.25
2023-01-10T22:23:32.122Z,7.36
2023-01-10T22:26:16.289Z,7.39
2023-01-10T22:28:47.825Z,7.39
2023-01-10T22:31:19.397Z,7.36
2023-01-10T22:33:51.468Z,7.35
2023-01-10T22:36:24.634Z,7.41
2023-01-10T22:38:56.020Z,7.44
2023-01-10T22:41:29.248Z,7.44
2023-01-10T22:44:00.958Z,7.34
2023-01-10T22:46:36.115Z,7.19
2023-01-10T22:49:07.793Z,7.16
2023-01-10T22:51:39.327Z,7.14
2023-01-10T22:54:13.518Z,7.10
2023-01-10T22:56:45.386Z,7.03
2023-01-10T23:04:56.579Z,7.16
2023-01-10T23:07:28.367Z,7.07
2023-01-10T23:09:59.909Z,7.11
2023-01-10T23:12:31.544Z,7.18
2023-01-10T23:15:04.671Z,7.13
2023-01-10T23:17:37.649Z,7.02
2023-01-10T23:20:11.575Z,7.00
2023-01-10T23:22:51.955Z,6.99
2023-01-10T23:25:29.858Z,7.03
2023-01-10T23:28:08.392Z,7.24
2023-01-10T23:30:44.264Z,7.22
2023-01-10T23:33:17.877Z,7.25
2023-01-10T23:35:49.724Z,7.22
2023-01-10T23:38:21.401Z,7.20
2023-01-10T23:40:53.037Z,7.22
2023-01-10T23:43:25.404Z,7.33
2023-01-10T23:45:57.027Z,7.29
2023-01-10T23:48:29.996Z,7.23
2023-01-10T23:51:02.035Z,7.26
2023-01-10T23:53:34.560Z,7.23
2023-01-10T23:56:11.166Z,7.19
2023-01-10T23:58:42.817Z,7.16
